Aérodrome :
LOGIN :

S'inscrire | Disclaimer

   EN    FR    IT 

 










Légende :    VFR   VFR Marginal   IFR   IFR Intensif   IFR Très Intensif
Visi : 
Plafond : 
>= 8 km
>= 3000ft
5 à 8 km
1000 à 3000 ft
1500m à 5 km
500 à 1000 ft
800 à 1500m
200 à 500 ft
< 800m
< 200 ft
Symboles :   Orages  Brouillard  Fortes neiges  Fortes précipitations  Vent > 20 kt
SIGMETs :   Divers  Orages  Givrage  Turbulence  Onde Orograph.  Cendres Volcan.






- Altitude de l'aérodrome : 665 ft
- Code IATA : NOC


EIKN - Connaught / Knock- Ireland West

DERNIER METAR :
  • 231900Z 16003KT 9999 FEW046 OVC100 03/01 Q1018 NOSIG

METARs EXPIRÉS :
  • 231830Z 21003KT 9999 FEW048 BKN100 04/01 Q1019 NOSIG
  • 231800Z 22003KT 9999 SCT048 BKN100 04/02 Q1019 NOSIG

TAF TAF EIKN
Valide du 23 à 18h jusqu'au 24 à 18h UTC


231700Z 2318/2418 VRB03KT 9999 FEW010 BKN020
BECMG 2320/2322 15010KT -RA SCT004 BKN008
TEMPO 2320/2322 4000 BKN004
BECMG 2322/2324 11015KT 3000 RASN SCT002 BKN004
TEMPO 2322/2405 0800 SN BKN002
BECMG 2400/2402 11020G30KT
TEMPO 2403/2405 14010KT
BECMG 2405/2407 23020G32KT 4000 RA BKN003
TEMPO 2405/2407 0800 RADZ FG BKN002
BECMG 2407/2409 -RA
BECMG 2410/2412 29017G28KT 9999 NSW SCT012 BKN020
TEMPO 2410/2417 29022G35KT
TEMPO 2415/2418 -SHRA SCT018CB



MET'MAP, la Météo Aéronautique d'un coup d'oeil ! - Copyright ORBIFLY Décembre 2007 - Disclaimer

ORBIFLY MET'MAP TEAM :

Programmation & Développement : Alexandra Zaïnal
Sur une idée originale de : Baudouin d'Aumeries
Assistance à la programmation : Marc-Olivier Méhu
Soutien technique & logistique : Manuel Goepfert

Contact : metmap@orbifly.com




SOURCES & CREDITS :

   NOAA